Time;durP1;ratioP1;P1;durP2;ratioP2;P2;SDS_P1;SDS_P2;PMS_P1;PMS_P2;Temp;Humidity;BMP_temperature;BMP_pressure;BME280_temperature;BME280_humidity;BME280_pressure;Samples;Min_cycle;Max_cycle;Signal;HPM_P1;HPM_P2
2021/10/13 00:01:08;;;;;;;1.63;1.02;;;21.20;53.90;;;;;;4987984;28;20037;-59
2021/10/13 00:03:34;;;;;;;1.30;0.90;;;21.10;53.80;;;;;;4988371;28;20026;-59
2021/10/13 00:05:59;;;;;;;1.85;1.00;;;21.10;53.90;;;;;;4988625;28;20101;-58
2021/10/13 00:08:25;;;;;;;1.27;0.90;;;21.10;53.90;;;;;;4991486;28;20026;-58
2021/10/13 00:10:51;;;;;;;1.20;0.90;;;21.10;53.90;;;;;;4986252;28;20080;-61
2021/10/13 00:13:18;;;;;;;2.08;1.00;;;21.10;53.90;;;;;;4981051;28;20031;-57
2021/10/13 00:15:44;;;;;;;1.83;1.00;;;21.10;53.90;;;;;;4986432;28;20093;-61
2021/10/13 00:18:10;;;;;;;1.92;1.20;;;21.10;54.40;;;;;;4987189;28;20035;-61
2021/10/13 00:20:35;;;;;;;2.58;1.20;;;21.10;53.90;;;;;;4990160;28;20054;-61
2021/10/13 00:23:01;;;;;;;1.85;1.10;;;21.10;53.90;;;;;;4987209;28;20031;-58
2021/10/13 00:25:27;;;;;;;1.63;1.02;;;21.10;53.90;;;;;;4983167;28;20103;-61
2021/10/13 00:27:53;;;;;;;2.05;1.10;;;21.00;53.80;;;;;;4997159;28;20034;-59
2021/10/13 00:30:18;;;;;;;1.33;0.90;;;21.00;53.90;;;;;;4996627;28;20022;-60
2021/10/13 00:32:44;;;;;;;1.55;0.95;;;21.10;53.90;;;;;;4990600;28;20137;-58
2021/10/13 00:35:10;;;;;;;1.80;1.00;;;21.00;53.90;;;;;;4989421;28;20029;-55
2021/10/13 00:37:36;;;;;;;1.52;1.00;;;21.00;53.90;;;;;;4988320;28;20027;-59
2021/10/13 00:40:03;;;;;;;1.40;0.90;;;21.00;53.90;;;;;;4988109;28;20086;-57
2021/10/13 00:42:28;;;;;;;1.83;0.98;;;21.00;53.90;;;;;;4990540;28;20422;-61
2021/10/13 00:44:54;;;;;;;1.60;0.90;;;21.00;53.90;;;;;;4999087;28;20042;-57
2021/10/13 00:47:20;;;;;;;2.85;1.10;;;21.00;53.90;;;;;;4989615;28;20034;-61
2021/10/13 00:49:46;;;;;;;1.33;0.77;;;21.00;53.90;;;;;;4989402;28;20030;-59
2021/10/13 00:52:12;;;;;;;1.73;0.85;;;21.00;53.90;;;;;;4983022;28;20140;-59
2021/10/13 00:54:38;;;;;;;2.22;1.10;;;21.00;53.90;;;;;;4984359;28;20611;-61
2021/10/13 00:57:04;;;;;;;1.50;1.00;;;20.90;53.90;;;;;;4984448;28;20132;-57
2021/10/13 00:59:29;;;;;;;2.45;1.00;;;21.00;53.90;;;;;;4989862;28;20440;-59
2021/10/13 01:02:03;;;;;;;1.40;1.00;;;21.00;53.90;;;;;;4976320;28;20064;-57
2021/10/13 01:04:38;;;;;;;1.40;0.90;;;21.00;53.90;;;;;;4989315;28;20038;-59
2021/10/13 01:07:33;;;;;;;1.60;0.90;;;21.00;53.90;;;;;;4986791;28;20049;-59
2021/10/13 01:10:07;;;;;;;1.63;1.00;;;21.00;53.90;;;;;;4991883;28;20023;-58
2021/10/13 01:12:39;;;;;;;1.50;1.00;;;21.00;53.90;;;;;;4985614;28;20516;-58
2021/10/13 01:15:19;;;;;;;2.05;0.95;;;21.00;53.90;;;;;;4981306;28;20076;-59
2021/10/13 01:17:56;;;;;;;1.80;0.90;;;20.90;53.90;;;;;;4996479;28;20036;-61
2021/10/13 01:20:29;;;;;;;1.70;1.00;;;20.90;53.90;;;;;;5000326;28;20126;-59
2021/10/13 01:23:23;;;;;;;1.98;1.20;;;20.90;53.90;;;;;;4993815;28;20030;-56
2021/10/13 01:26:08;;;;;;;1.73;1.00;;;20.90;53.90;;;;;;4984206;28;20103;-58
2021/10/13 01:28:36;;;;;;;1.25;0.80;;;20.90;53.90;;;;;;4982947;28;20081;-58
2021/10/13 01:31:26;;;;;;;2.08;1.00;;;20.90;53.90;;;;;;4990886;28;20156;-61
2021/10/13 01:34:21;;;;;;;1.60;0.98;;;20.90;53.90;;;;;;4976488;28;20018;-59
2021/10/13 01:37:04;;;;;;;1.40;1.00;;;20.90;53.90;;;;;;4989214;28;20050;-59
2021/10/13 01:39:31;;;;;;;1.38;0.90;;;20.90;53.90;;;;;;4988594;28;20034;-58
2021/10/13 01:41:59;;;;;;;1.27;0.93;;;20.90;53.90;;;;;;4991437;28;20168;-57
2021/10/13 01:44:28;;;;;;;1.42;1.15;;;20.90;54.00;;;;;;4991405;28;20101;-61
2021/10/13 01:46:53;;;;;;;1.25;0.80;;;20.80;53.90;;;;;;4984492;28;20153;-59
2021/10/13 01:49:20;;;;;;;1.02;0.80;;;20.80;53.90;;;;;;4988576;28;20102;-60
2021/10/13 01:51:48;;;;;;;1.63;1.10;;;20.80;53.90;;;;;;4988572;28;20121;-57
2021/10/13 01:54:15;;;;;;;1.48;0.90;;;20.80;54.00;;;;;;4987359;28;20038;-59
2021/10/13 01:56:42;;;;;;;1.60;1.00;;;20.80;54.00;;;;;;4990120;28;20035;-58
2021/10/13 01:59:16;;;;;;;1.70;1.00;;;20.80;54.00;;;;;;4986603;28;20027;-58
2021/10/13 02:01:43;;;;;;;1.50;1.00;;;20.80;54.00;;;;;;4996121;28;20478;-58
2021/10/13 02:04:10;;;;;;;1.40;0.85;;;20.80;54.00;;;;;;4979270;28;20101;-58
2021/10/13 02:06:37;;;;;;;1.42;0.80;;;20.80;54.00;;;;;;4980952;28;20038;-59
2021/10/13 02:09:04;;;;;;;1.92;1.10;;;20.80;54.00;;;;;;4993166;28;20030;-58
2021/10/13 02:11:31;;;;;;;1.55;1.00;;;20.80;54.00;;;;;;4983090;28;20034;-57
2021/10/13 02:14:07;;;;;;;1.30;0.85;;;20.70;54.00;;;;;;4990305;28;20041;-59
2021/10/13 02:16:34;;;;;;;1.88;1.00;;;20.70;54.00;;;;;;4987952;28;20509;-59
2021/10/13 02:19:02;;;;;;;1.55;0.90;;;20.70;54.00;;;;;;4995193;28;20041;-60
2021/10/13 02:21:31;;;;;;;1.42;0.90;;;20.70;54.00;;;;;;4987745;28;20026;-58
2021/10/13 02:23:59;;;;;;;1.27;0.90;;;20.70;54.00;;;;;;4995868;28;20034;-61
2021/10/13 02:26:38;;;;;;;1.15;0.85;;;20.70;54.00;;;;;;4993300;28;20073;-59
2021/10/13 02:29:13;;;;;;;1.42;0.90;;;20.70;54.00;;;;;;5000456;28;20128;-59
2021/10/13 02:31:39;;;;;;;1.45;0.90;;;20.70;54.00;;;;;;4994808;28;20249;-59
2021/10/13 02:34:05;;;;;;;1.08;0.85;;;20.70;54.50;;;;;;4987293;28;20029;-58
2021/10/13 02:36:30;;;;;;;0.90;0.73;;;20.70;54.00;;;;;;4987508;28;20041;-58
2021/10/13 02:38:56;;;;;;;0.90;0.80;;;20.70;54.10;;;;;;4990361;28;20076;-57
2021/10/13 02:41:22;;;;;;;1.08;0.75;;;20.70;54.00;;;;;;4996715;28;20038;-60
2021/10/13 02:43:48;;;;;;;1.52;0.93;;;20.70;54.10;;;;;;4987954;28;20034;-59
2021/10/13 02:46:16;;;;;;;1.30;1.00;;;20.70;54.10;;;;;;4993490;28;20805;-59
2021/10/13 02:48:48;;;;;;;1.33;0.88;;;20.70;54.10;;;;;;4994559;28;20053;-59
2021/10/13 02:51:20;;;;;;;1.20;0.80;;;20.70;54.10;;;;;;4981752;28;20068;-59
2021/10/13 02:53:52;;;;;;;1.13;0.80;;;20.70;54.10;;;;;;4991083;28;20073;-58
2021/10/13 02:56:25;;;;;;;1.73;0.80;;;20.70;54.10;;;;;;4993975;28;20413;-58
2021/10/13 02:59:10;;;;;;;1.00;0.80;;;20.70;54.10;;;;;;4987258;28;20034;-57
2021/10/13 03:01:43;;;;;;;1.50;0.90;;;20.70;54.10;;;;;;4991236;28;20031;-60
2021/10/13 03:04:14;;;;;;;0.75;0.65;;;20.60;54.00;;;;;;4994517;28;20565;-58
2021/10/13 03:07:04;;;;;;;1.30;0.90;;;20.60;54.00;;;;;;4981235;28;20069;-57
2021/10/13 03:09:34;;;;;;;1.10;0.70;;;20.70;54.10;;;;;;4981686;28;20034;-59
2021/10/13 03:12:01;;;;;;;;;;;20.70;54.10;;;;;;4991159;28;20030;-58
2021/10/13 03:14:29;;;;;;;1.50;0.90;;;20.60;54.10;;;;;;4980648;28;19935;-58
2021/10/13 03:16:55;;;;;;;1.33;0.90;;;20.60;54.10;;;;;;4994403;28;20054;-59
2021/10/13 03:19:22;;;;;;;1.00;0.80;;;20.60;54.10;;;;;;4986598;28;20023;-59
2021/10/13 03:21:50;;;;;;;0.85;0.70;;;20.60;54.10;;;;;;4987090;28;20088;-59
2021/10/13 03:24:19;;;;;;;1.58;1.00;;;20.60;54.10;;;;;;4996011;28;20019;-59
2021/10/13 03:26:46;;;;;;;1.40;0.90;;;20.60;54.10;;;;;;4994732;28;20113;-60
2021/10/13 03:29:12;;;;;;;1.10;0.80;;;20.60;54.10;;;;;;4993658;28;20458;-60
2021/10/13 03:31:38;;;;;;;1.17;0.82;;;20.60;54.20;;;;;;4986551;28;20037;-59
2021/10/13 03:34:03;;;;;;;1.60;0.90;;;20.60;54.20;;;;;;4981774;28;20094;-57
2021/10/13 03:36:37;;;;;;;1.33;0.90;;;20.60;54.20;;;;;;4986709;28;20033;-55
2021/10/13 03:39:03;;;;;;;1.08;0.80;;;20.50;54.10;;;;;;4997123;28;20133;-57
2021/10/13 03:41:29;;;;;;;0.95;0.80;;;20.60;54.20;;;;;;4983290;28;20121;-58
2021/10/13 03:43:54;;;;;;;1.27;0.80;;;20.60;54.20;;;;;;4996282;28;20176;-54
2021/10/13 03:46:21;;;;;;;1.05;0.80;;;20.50;54.20;;;;;;4985029;28;20038;-59
2021/10/13 03:48:50;;;;;;;0.90;0.70;;;20.50;54.20;;;;;;4982771;28;20034;-60
2021/10/13 03:51:17;;;;;;;1.45;0.90;;;20.50;54.20;;;;;;4985140;28;20034;-59
2021/10/13 03:53:42;;;;;;;1.30;0.70;;;20.50;54.30;;;;;;4985520;28;20121;-56
2021/10/13 03:56:08;;;;;;;1.20;0.68;;;20.50;54.40;;;;;;4991247;28;20172;-58
2021/10/13 03:58:33;;;;;;;1.38;0.80;;;20.50;54.40;;;;;;4991017;28;20031;-58
2021/10/13 04:00:59;;;;;;;1.20;0.80;;;20.50;54.40;;;;;;4987659;28;20031;-61
2021/10/13 04:03:25;;;;;;;2.28;0.88;;;20.50;54.50;;;;;;4987071;28;20030;-61
2021/10/13 04:05:50;;;;;;;1.63;0.90;;;20.50;54.60;;;;;;4985246;28;20034;-58
2021/10/13 04:08:16;;;;;;;1.83;0.90;;;20.50;54.70;;;;;;4979320;28;20466;-57
2021/10/13 04:10:41;;;;;;;1.70;0.80;;;20.50;54.70;;;;;;4984257;28;20040;-55
2021/10/13 04:13:07;;;;;;;1.05;0.77;;;20.50;54.80;;;;;;4980930;28;20411;-59
2021/10/13 04:15:33;;;;;;;2.25;0.93;;;20.50;54.80;;;;;;4982517;28;20541;-58
2021/10/13 04:17:58;;;;;;;2.25;1.00;;;20.50;54.80;;;;;;4991777;28;20026;-58
2021/10/13 04:20:24;;;;;;;1.55;0.95;;;20.40;54.70;;;;;;4941237;28;1106515;-60
2021/10/13 04:22:49;;;;;;;2.63;0.90;;;20.50;54.80;;;;;;5002418;28;20517;-60
2021/10/13 04:25:15;;;;;;;1.63;0.85;;;20.50;54.80;;;;;;4989024;28;20037;-58
2021/10/13 04:27:41;;;;;;;1.75;0.90;;;20.50;54.90;;;;;;4994873;28;20052;-57
2021/10/13 04:30:07;;;;;;;1.45;0.90;;;20.50;54.80;;;;;;4990768;28;20036;-61
2021/10/13 04:32:33;;;;;;;1.88;0.80;;;20.50;54.80;;;;;;4981908;28;20033;-59
2021/10/13 04:34:59;;;;;;;1.58;0.90;;;20.50;54.90;;;;;;4984655;28;20472;-59
2021/10/13 04:37:24;;;;;;;2.13;1.10;;;20.40;54.80;;;;;;4980563;28;20027;-61
2021/10/13 04:39:50;;;;;;;2.20;0.90;;;20.40;54.90;;;;;;4989106;28;20034;-58
2021/10/13 04:42:16;;;;;;;1.70;0.82;;;20.50;54.90;;;;;;4986290;28;20090;-59
2021/10/13 04:44:41;;;;;;;1.95;0.90;;;20.40;54.90;;;;;;4992594;28;20046;-57
2021/10/13 04:47:07;;;;;;;1.50;0.80;;;20.40;54.90;;;;;;4980911;28;20070;-58
2021/10/13 04:49:33;;;;;;;1.90;0.90;;;20.40;54.90;;;;;;4985277;28;20884;-61
2021/10/13 04:51:59;;;;;;;1.77;1.00;;;20.40;54.90;;;;;;4981681;28;20091;-61
2021/10/13 04:54:24;;;;;;;1.48;0.90;;;20.40;54.90;;;;;;4985529;28;20200;-56
2021/10/13 04:56:50;;;;;;;1.60;0.80;;;20.40;54.90;;;;;;4988837;28;20047;-58
2021/10/13 04:59:16;;;;;;;1.55;0.82;;;20.40;55.00;;;;;;4991900;28;20030;-58
2021/10/13 05:01:41;;;;;;;2.05;0.90;;;20.40;55.00;;;;;;4981608;28;20131;-60
2021/10/13 05:04:07;;;;;;;1.85;0.95;;;20.40;55.00;;;;;;4986939;28;20026;-59
2021/10/13 05:06:33;;;;;;;1.52;0.80;;;20.40;55.00;;;;;;4986442;28;20624;-59
2021/10/13 05:08:58;;;;;;;1.85;0.80;;;20.40;55.00;;;;;;4985730;28;20026;-58
2021/10/13 05:11:24;;;;;;;1.58;0.80;;;20.40;55.00;;;;;;4985426;28;20327;-58
2021/10/13 05:13:49;;;;;;;1.02;0.70;;;20.40;55.10;;;;;;4979191;28;20053;-59
2021/10/13 05:16:15;;;;;;;1.67;0.90;;;20.40;55.10;;;;;;4989517;28;20122;-59
2021/10/13 05:18:41;;;;;;;1.05;0.80;;;20.30;55.00;;;;;;4984267;28;20096;-58
2021/10/13 05:21:06;;;;;;;1.55;0.90;;;20.30;55.00;;;;;;4989630;28;20060;-61
2021/10/13 05:23:32;;;;;;;2.05;0.95;;;20.30;55.10;;;;;;4985517;28;20738;-56
2021/10/13 05:25:57;;;;;;;2.38;0.90;;;20.30;55.10;;;;;;4990086;28;20055;-60
2021/10/13 05:28:23;;;;;;;2.55;1.42;;;20.40;55.20;;;;;;4988229;28;20029;-59
2021/10/13 05:30:49;;;;;;;2.63;1.00;;;20.40;55.20;;;;;;5007029;28;20041;-59
2021/10/13 05:33:14;;;;;;;1.58;0.90;;;20.40;55.10;;;;;;5007204;28;20219;-59
2021/10/13 05:35:40;;;;;;;1.42;0.85;;;20.30;55.10;;;;;;4992879;28;20060;-57
2021/10/13 05:38:06;;;;;;;1.55;0.88;;;20.30;55.10;;;;;;4990719;28;20034;-61
2021/10/13 05:40:31;;;;;;;2.55;1.10;;;20.30;55.20;;;;;;4991668;28;20077;-59
2021/10/13 05:42:57;;;;;;;1.83;1.10;;;20.30;55.20;;;;;;5001254;28;20151;-59
2021/10/13 05:45:23;;;;;;;3.13;1.00;;;20.30;55.20;;;;;;4995931;28;20398;-61
2021/10/13 05:47:48;;;;;;;1.98;0.95;;;20.30;55.20;;;;;;5002821;28;20185;-59
2021/10/13 05:50:14;;;;;;;1.60;0.80;;;20.30;55.20;;;;;;5005501;28;20026;-59
2021/10/13 05:52:40;;;;;;;2.80;0.98;;;20.30;55.20;;;;;;4996625;28;20069;-58
2021/10/13 05:55:06;;;;;;;2.80;1.20;;;20.30;55.20;;;;;;5005471;28;20613;-59
2021/10/13 05:57:32;;;;;;;2.33;1.00;;;20.30;55.20;;;;;;4994268;28;20069;-60
2021/10/13 05:59:59;;;;;;;2.72;1.00;;;20.30;55.20;;;;;;5007290;28;20190;-59
2021/10/13 06:02:26;;;;;;;2.63;1.08;;;20.30;55.20;;;;;;4984743;28;20042;-61
2021/10/13 06:04:51;;;;;;;4.00;0.95;;;20.30;55.20;;;;;;4984987;28;20442;-56
2021/10/13 06:07:17;;;;;;;2.92;1.20;;;20.30;55.20;;;;;;4988317;28;20038;-61
2021/10/13 06:09:43;;;;;;;2.08;0.90;;;20.30;55.20;;;;;;4995821;28;20031;-60
2021/10/13 06:12:08;;;;;;;2.40;1.05;;;20.20;55.20;;;;;;4987232;28;20094;-59
2021/10/13 06:14:34;;;;;;;3.47;1.25;;;20.20;55.20;;;;;;5006428;28;20032;-60
2021/10/13 06:17:00;;;;;;;2.83;0.90;;;20.20;55.20;;;;;;4993642;28;20072;-59
2021/10/13 06:19:26;;;;;;;6.57;1.63;;;20.20;55.20;;;;;;4997043;28;20029;-59
2021/10/13 06:21:51;;;;;;;2.42;1.00;;;20.20;55.20;;;;;;5001585;28;20022;-58
2021/10/13 06:24:17;;;;;;;1.65;1.00;;;20.20;55.20;;;;;;4997785;28;20042;-61
2021/10/13 06:26:42;;;;;;;1.98;0.80;;;20.20;55.20;;;;;;4995084;28;20517;-57
2021/10/13 06:29:09;;;;;;;3.22;0.98;;;20.20;55.30;;;;;;4996150;28;20026;-59
2021/10/13 06:31:35;;;;;;;2.22;1.10;;;20.20;55.30;;;;;;4998733;28;20030;-58
2021/10/13 06:34:01;;;;;;;2.47;1.00;;;20.20;55.30;;;;;;4988470;28;20597;-61
2021/10/13 06:36:26;;;;;;;1.75;0.90;;;20.20;55.30;;;;;;4996518;28;20057;-58
2021/10/13 06:38:52;;;;;;;1.63;0.80;;;20.20;55.30;;;;;;4986206;28;20598;-59
2021/10/13 06:41:18;;;;;;;4.20;1.00;;;20.20;55.30;;;;;;4979827;28;20041;-61
2021/10/13 06:43:43;;;;;;;2.25;1.20;;;20.20;55.30;;;;;;4995445;28;20026;-58
2021/10/13 06:46:09;;;;;;;2.33;0.88;;;20.20;55.30;;;;;;4988224;28;20041;-58
2021/10/13 06:48:35;;;;;;;2.22;0.98;;;20.20;55.30;;;;;;4993630;28;20030;-59
2021/10/13 06:51:02;;;;;;;2.70;1.00;;;20.20;55.30;;;;;;4987275;28;20083;-59
2021/10/13 06:53:28;;;;;;;1.60;0.82;;;20.20;55.30;;;;;;5000350;28;20027;-58
2021/10/13 06:55:55;;;;;;;1.40;0.80;;;20.20;55.30;;;;;;4993334;28;20037;-61
2021/10/13 06:58:21;;;;;;;1.77;1.00;;;20.10;55.30;;;;;;4999802;28;20379;-59
2021/10/13 07:00:47;;;;;;;2.00;0.90;;;20.10;55.30;;;;;;4994729;28;20053;-58
2021/10/13 07:03:12;;;;;;;1.95;0.90;;;20.10;55.30;;;;;;5007012;28;20026;-59
2021/10/13 07:05:38;;;;;;;2.83;1.00;;;20.10;55.30;;;;;;4985499;28;20026;-60
2021/10/13 07:08:04;;;;;;;1.77;0.93;;;20.10;55.30;;;;;;4995769;28;20022;-58
2021/10/13 07:10:30;;;;;;;1.70;0.90;;;20.10;55.30;;;;;;5001430;28;20173;-59
2021/10/13 07:12:55;;;;;;;2.83;1.00;;;20.20;55.40;;;;;;4996983;28;20800;-58
2021/10/13 07:15:21;;;;;;;1.75;0.90;;;20.10;55.40;;;;;;4998636;28;20105;-58
2021/10/13 07:17:48;;;;;;;1.38;0.85;;;20.20;55.40;;;;;;4998278;28;20034;-60
2021/10/13 07:20:13;;;;;;;2.38;1.00;;;20.10;55.40;;;;;;4987348;28;20038;-59
2021/10/13 07:22:40;;;;;;;2.17;0.90;;;20.10;55.40;;;;;;5003198;28;20036;-61
2021/10/13 07:25:08;;;;;;;1.30;0.88;;;20.10;55.50;;;;;;4999386;28;20501;-59
2021/10/13 07:27:34;;;;;;;2.17;1.05;;;20.10;55.40;;;;;;4993166;28;20018;-58
2021/10/13 07:30:02;;;;;;;2.00;0.90;;;20.10;55.50;;;;;;5008652;28;20026;-57
2021/10/13 07:32:31;;;;;;;2.33;0.90;;;20.10;55.60;;;;;;5008492;28;20609;-59
2021/10/13 07:34:57;;;;;;;1.50;0.80;;;20.10;55.60;;;;;;4990384;28;20136;-59
2021/10/13 07:37:23;;;;;;;2.78;1.02;;;20.10;55.50;;;;;;4989690;28;20055;-56
2021/10/13 07:39:49;;;;;;;1.55;0.90;;;20.10;55.60;;;;;;5001770;28;20027;-59
2021/10/13 07:42:16;;;;;;;2.33;0.93;;;20.00;55.50;;;;;;4992798;28;20041;-59
2021/10/13 07:44:42;;;;;;;2.50;0.90;;;20.10;55.60;;;;;;5005215;28;20049;-59
2021/10/13 07:47:08;;;;;;;1.30;0.80;;;20.00;55.50;;;;;;4993288;28;20048;-59
2021/10/13 07:49:36;;;;;;;2.45;1.00;;;20.10;55.60;;;;;;5003107;28;20030;-58
2021/10/13 07:52:02;;;;;;;1.95;0.90;;;20.10;55.60;;;;;;4994102;28;20030;-60
2021/10/13 07:54:27;;;;;;;1.75;0.90;;;20.10;55.60;;;;;;5006597;28;20026;-59
2021/10/13 07:56:53;;;;;;;1.13;0.80;;;20.10;55.60;;;;;;4993833;28;20109;-58
2021/10/13 07:59:18;;;;;;;1.33;0.80;;;20.10;55.60;;;;;;4997342;28;20029;-61
2021/10/13 08:01:44;;;;;;;1.58;0.80;;;20.10;55.70;;;;;;4991056;28;20061;-60
2021/10/13 08:04:10;;;;;;;2.20;0.88;;;20.00;55.60;;;;;;5005922;28;20104;-58
2021/10/13 08:06:35;;;;;;;1.63;1.00;;;20.10;55.70;;;;;;4985239;28;20031;-57
2021/10/13 08:09:01;;;;;;;2.20;0.80;;;20.00;55.60;;;;;;4995421;28;20025;-61
2021/10/13 08:11:27;;;;;;;1.20;0.80;;;20.10;55.70;;;;;;4987965;28;20027;-60
2021/10/13 08:13:52;;;;;;;1.63;1.02;;;20.10;55.70;;;;;;5007207;28;20030;-61
2021/10/13 08:16:18;;;;;;;1.00;0.80;;;20.00;55.70;;;;;;4999716;28;20030;-61
2021/10/13 08:18:44;;;;;;;1.25;0.77;;;20.00;55.60;;;;;;5003362;28;20045;-56
2021/10/13 08:21:10;;;;;;;3.25;0.93;;;20.00;55.70;;;;;;4979220;28;20106;-59
2021/10/13 08:23:35;;;;;;;1.38;0.90;;;20.00;55.70;;;;;;4983781;28;20426;-61
2021/10/13 08:26:01;;;;;;;1.25;0.80;;;20.00;55.70;;;;;;5000376;28;20045;-59
2021/10/13 08:28:28;;;;;;;2.10;1.17;;;20.00;55.70;;;;;;4995028;28;20747;-59
2021/10/13 08:30:54;;;;;;;1.45;0.90;;;20.10;55.70;;;;;;4995532;28;20157;-59
2021/10/13 08:33:20;;;;;;;1.85;1.00;;;20.00;55.70;;;;;;4990300;28;20041;-59
2021/10/13 08:35:46;;;;;;;1.35;0.80;;;20.00;55.70;;;;;;4998548;28;20033;-59
2021/10/13 08:38:12;;;;;;;1.33;0.70;;;20.00;55.60;;;;;;4996356;28;20555;-56
2021/10/13 08:40:38;;;;;;;2.20;0.70;;;20.00;55.60;;;;;;4994908;28;20038;-57
2021/10/13 08:43:05;;;;;;;1.20;0.80;;;20.00;55.70;;;;;;4992636;28;20029;-59
2021/10/13 08:45:32;;;;;;;1.38;0.82;;;20.00;55.70;;;;;;5008261;28;20030;-59
2021/10/13 08:47:58;;;;;;;1.00;0.70;;;20.00;55.70;;;;;;4991864;28;20173;-61
2021/10/13 08:50:26;;;;;;;1.58;0.88;;;20.00;55.70;;;;;;4990645;28;20041;-59
2021/10/13 08:52:53;;;;;;;1.20;0.80;;;20.00;55.70;;;;;;4994769;28;20069;-60
2021/10/13 08:55:19;;;;;;;1.38;0.90;;;20.00;55.70;;;;;;4996874;28;20090;-60
2021/10/13 08:57:45;;;;;;;1.77;0.90;;;20.00;55.70;;;;;;5006629;28;20350;-57
2021/10/13 09:00:21;;;;;;;1.27;0.80;;;20.00;55.70;;;;;;5003562;28;20032;-59
2021/10/13 09:02:47;;;;;;;1.02;0.70;;;20.00;55.80;;;;;;4990157;28;20142;-55
2021/10/13 09:05:14;;;;;;;0.98;0.70;;;20.00;55.70;;;;;;4992488;28;20446;-57
2021/10/13 09:07:49;;;;;;;1.33;0.70;;;20.00;55.70;;;;;;4981328;28;20130;-61
2021/10/13 09:10:34;;;;;;;1.60;0.80;;;20.00;55.70;;;;;;5007856;28;20033;-59
2021/10/13 09:13:13;;;;;;;1.85;0.85;;;20.00;55.70;;;;;;4997488;28;20378;-59
2021/10/13 09:15:39;;;;;;;2.05;0.93;;;20.00;55.70;;;;;;4984067;28;20056;-59
2021/10/13 09:18:06;;;;;;;1.63;0.70;;;20.00;55.70;;;;;;5000416;28;20029;-58
2021/10/13 09:20:38;;;;;;;1.45;0.90;;;20.00;55.70;;;;;;5005961;28;20042;-59
2021/10/13 09:23:06;;;;;;;1.23;0.90;;;20.00;55.70;;;;;;4987211;28;20030;-60
2021/10/13 09:25:33;;;;;;;1.70;1.00;;;20.00;55.80;;;;;;4994604;28;20133;-61
2021/10/13 09:28:00;;;;;;;2.35;0.80;;;20.00;55.70;;;;;;5008083;28;20034;-58
2021/10/13 09:30:39;;;;;;;1.27;0.80;;;20.00;55.70;;;;;;5007151;28;20046;-59
2021/10/13 09:33:16;;;;;;;1.70;0.90;;;20.00;55.70;;;;;;4992021;28;20105;-56
2021/10/13 09:35:44;;;;;;;1.42;0.80;;;20.00;55.80;;;;;;4989191;28;20034;-60
2021/10/13 09:38:16;;;;;;;1.35;0.80;;;19.90;55.70;;;;;;4991736;28;20693;-59
2021/10/13 09:40:42;;;;;;;1.50;0.80;;;19.90;55.70;;;;;;4982661;28;20417;-60
2021/10/13 09:43:25;;;;;;;2.20;0.98;;;19.90;56.20;;;;;;4991102;28;20030;-56
2021/10/13 09:46:01;;;;;;;1.73;0.88;;;19.90;55.70;;;;;;4981645;28;20065;-59
2021/10/13 09:48:26;;;;;;;1.98;0.82;;;20.00;55.70;;;;;;4979985;28;20125;-60
2021/10/13 09:50:52;;;;;;;1.35;0.70;;;19.90;55.70;;;;;;4977924;28;20134;-59
2021/10/13 09:53:21;;;;;;;1.05;0.70;;;20.00;55.70;;;;;;4978964;28;20038;-57
2021/10/13 09:55:47;;;;;;;;;;;19.90;55.70;;;;;;4986787;28;20031;-58
2021/10/13 09:58:27;;;;;;;2.75;1.00;;;20.00;55.80;;;;;;4993969;28;20599;-61
2021/10/13 10:01:10;;;;;;;3.92;1.00;;;19.90;55.80;;;;;;4997183;28;20509;-57
2021/10/13 10:03:38;;;;;;;1.60;0.90;;;20.00;55.80;;;;;;4994425;28;20101;-60
2021/10/13 10:06:06;;;;;;;1.20;0.90;;;19.90;55.70;;;;;;4990275;28;20030;-58
2021/10/13 10:08:53;;;;;;;1.88;0.82;;;20.00;55.60;;;;;;4985091;28;20022;-60
2021/10/13 10:11:29;;;;;;;1.20;0.80;;;19.90;55.50;;;;;;4995404;28;20119;-61
2021/10/13 10:13:55;;;;;;;1.95;1.00;;;19.90;55.40;;;;;;4998721;28;20034;-59
2021/10/13 10:16:37;;;;;;;1.60;0.88;;;19.90;55.30;;;;;;4984752;28;20026;-56
2021/10/13 10:19:23;;;;;;;1.63;0.93;;;19.90;55.20;;;;;;4979407;28;20041;-56
2021/10/13 10:21:54;;;;;;;1.77;0.98;;;19.90;55.20;;;;;;4989014;28;20054;-59
2021/10/13 10:24:24;;;;;;;2.25;1.00;;;19.90;55.10;;;;;;4989898;28;20088;-58
2021/10/13 10:26:50;;;;;;;2.63;1.42;;;19.90;55.00;;;;;;4981901;28;20537;-57
2021/10/13 10:29:16;;;;;;;2.03;1.00;;;19.90;54.90;;;;;;4982088;28;20026;-58
2021/10/13 10:31:57;;;;;;;1.45;0.90;;;19.90;54.90;;;;;;4996788;28;20668;-60
2021/10/13 10:34:24;;;;;;;1.83;0.80;;;19.90;54.80;;;;;;4996176;28;20815;-58
2021/10/13 10:36:50;;;;;;;2.30;1.00;;;19.90;54.80;;;;;;4988157;28;20038;-60
2021/10/13 10:39:18;;;;;;;2.03;1.00;;;19.90;54.80;;;;;;4992177;28;20057;-58
2021/10/13 10:41:44;;;;;;;1.77;0.95;;;19.90;54.70;;;;;;4991008;28;20145;-58
2021/10/13 10:44:39;;;;;;;2.05;1.00;;;19.90;54.70;;;;;;4987213;28;20056;-57
2021/10/13 10:47:12;;;;;;;2.28;1.08;;;19.90;54.70;;;;;;4996165;28;20049;-60
2021/10/13 10:49:45;;;;;;;1.40;0.80;;;19.90;54.70;;;;;;4995579;28;20037;-59
2021/10/13 10:52:12;;;;;;;1.83;1.00;;;19.90;54.70;;;;;;4988657;28;20112;-59
2021/10/13 10:54:37;;;;;;;1.77;1.00;;;19.90;54.70;;;;;;4995537;28;20094;-58
2021/10/13 10:57:29;;;;;;;1.85;1.20;;;19.90;54.70;;;;;;4987100;28;20096;-60
2021/10/13 10:59:56;;;;;;;1.52;0.93;;;19.90;54.70;;;;;;4987677;28;20148;-58
2021/10/13 11:02:23;;;;;;;1.58;1.00;;;19.90;54.70;;;;;;4991923;28;20038;-59
2021/10/13 11:05:15;;;;;;;1.58;0.95;;;19.90;54.70;;;;;;4975398;28;20616;-58
2021/10/13 11:07:42;;;;;;;1.33;0.88;;;19.90;54.80;;;;;;4991242;28;20042;-59
2021/10/13 11:10:10;;;;;;;1.70;1.10;;;19.90;54.70;;;;;;4994436;28;20431;-60
2021/10/13 11:12:57;;;;;;;1.73;1.10;;;19.90;54.70;;;;;;4974337;28;20074;-58
2021/10/13 11:15:29;;;;;;;2.00;1.10;;;19.90;54.80;;;;;;4973069;28;20030;-57
2021/10/13 11:17:55;;;;;;;2.10;1.10;;;19.90;54.70;;;;;;4977887;28;20593;-56
2021/10/13 11:20:25;;;;;;;1.83;1.17;;;19.90;54.70;;;;;;4982183;28;20133;-57
2021/10/13 11:23:03;;;;;;;2.50;1.10;;;19.90;55.30;;;;;;4974329;28;20517;-58
2021/10/13 11:25:30;;;;;;;1.35;0.90;;;19.90;54.70;;;;;;4981899;28;20470;-59
2021/10/13 11:27:57;;;;;;;1.70;0.93;;;19.90;54.70;;;;;;4986288;28;20037;-58
2021/10/13 11:30:25;;;;;;;1.70;1.10;;;19.90;54.70;;;;;;4978793;28;20676;-57
2021/10/13 11:32:51;;;;;;;2.85;1.30;;;19.90;54.70;;;;;;4985788;28;20018;-57
2021/10/13 11:35:19;;;;;;;2.10;1.10;;;19.90;54.70;;;;;;4977817;28;20699;-57
2021/10/13 11:37:50;;;;;;;1.97;1.00;;;19.90;54.70;;;;;;4980993;28;20726;-58
2021/10/13 11:40:18;;;;;;;1.80;1.05;;;19.90;54.80;;;;;;4986860;28;20038;-55
2021/10/13 11:42:44;;;;;;;2.60;1.20;;;19.90;54.80;;;;;;4984826;28;20790;-60
2021/10/13 11:45:14;;;;;;;1.60;1.10;;;19.90;54.80;;;;;;4984219;28;20164;-59
2021/10/13 11:47:40;;;;;;;2.13;1.10;;;19.90;54.80;;;;;;4977883;28;20084;-60
2021/10/13 11:50:10;;;;;;;1.60;1.10;;;19.90;54.80;;;;;;4977170;28;20038;-59
2021/10/13 11:52:37;;;;;;;3.03;1.20;;;19.90;54.80;;;;;;4982754;28;20212;-59
2021/10/13 11:55:10;;;;;;;2.13;1.30;;;19.90;54.80;;;;;;4984870;28;20038;-58
2021/10/13 11:57:38;;;;;;;2.05;1.15;;;19.90;54.80;;;;;;4983031;28;20026;-58
2021/10/13 12:00:09;;;;;;;2.90;1.35;;;19.90;54.80;;;;;;4975569;28;20053;-59
2021/10/13 12:02:35;;;;;;;2.95;1.48;;;19.90;54.80;;;;;;4982603;28;20169;-59
2021/10/13 12:05:06;;;;;;;2.20;1.17;;;19.90;54.80;;;;;;4984177;28;20074;-58
2021/10/13 12:07:44;;;;;;;2.72;1.20;;;19.90;54.90;;;;;;4983019;28;20057;-58
2021/10/13 12:10:11;;;;;;;2.30;1.20;;;19.90;54.80;;;;;;4992329;28;20042;-57
2021/10/13 12:12:36;;;;;;;2.25;1.25;;;19.90;54.80;;;;;;4983745;28;20096;-57
2021/10/13 12:15:16;;;;;;;2.38;1.30;;;19.90;54.80;;;;;;4987154;28;20030;-60
2021/10/13 12:17:42;;;;;;;2.42;1.40;;;19.90;54.80;;;;;;4980654;28;20062;-58
2021/10/13 12:20:17;;;;;;;2.13;1.20;;;19.90;54.90;;;;;;4978443;28;20101;-58
2021/10/13 12:22:49;;;;;;;2.70;1.10;;;19.90;54.90;;;;;;4978857;28;20042;-58
2021/10/13 12:25:35;;;;;;;2.15;1.30;;;19.90;54.80;;;;;;4985787;28;20164;-57
2021/10/13 12:28:01;;;;;;;2.13;1.23;;;19.90;54.90;;;;;;4986735;28;20454;-59
2021/10/13 12:30:37;;;;;;;2.08;1.20;;;19.90;54.90;;;;;;4984019;28;20072;-58
2021/10/13 12:33:18;;;;;;;1.70;1.00;;;19.90;54.90;;;;;;4983864;28;20062;-59
2021/10/13 12:35:45;;;;;;;1.83;1.15;;;19.90;54.90;;;;;;4982745;28;20112;-58
2021/10/13 12:38:39;;;;;;;2.08;1.20;;;19.90;54.90;;;;;;4985474;28;20100;-57
2021/10/13 12:41:06;;;;;;;2.20;1.35;;;19.90;54.90;;;;;;4986106;28;20726;-59
2021/10/13 12:43:43;;;;;;;2.10;1.30;;;19.90;54.90;;;;;;4985642;28;20028;-61
2021/10/13 12:46:19;;;;;;;2.55;1.30;;;19.90;55.40;;;;;;4972371;28;20033;-59
2021/10/13 12:48:45;;;;;;;1.42;1.00;;;19.90;55.00;;;;;;4979449;28;20058;-60
2021/10/13 12:51:18;;;;;;;2.85;1.50;;;19.90;55.00;;;;;;4976883;28;20101;-59
2021/10/13 12:53:45;;;;;;;2.70;1.30;;;19.90;55.00;;;;;;4976310;28;20057;-59
2021/10/13 12:56:13;;;;;;;1.80;1.25;;;19.90;55.00;;;;;;4977991;28;20144;-58